createdAt,value
2023-02-27T05:47:44.215Z,14.82
2023-02-27T05:50:17.015Z,11.95
2023-02-27T05:52:47.147Z,10.20
2023-02-27T05:55:19.608Z,12.00
2023-02-27T05:57:52.980Z,14.05
2023-02-27T06:00:24.707Z,14.43
2023-02-27T06:02:54.246Z,13.27
2023-02-27T06:05:22.480Z,10.32
2023-02-27T06:07:50.408Z,10.35
2023-02-27T06:10:20.351Z,10.10
2023-02-27T06:12:48.468Z,11.20
2023-02-27T06:15:17.401Z,10.55
2023-02-27T06:17:45.458Z,17.92
2023-02-27T06:20:15.272Z,13.25
2023-02-27T06:22:43.271Z,10.60
2023-02-27T06:25:11.753Z,12.27
2023-02-27T06:27:39.687Z,12.52
2023-02-27T06:30:09.172Z,10.18
2023-02-27T06:32:37.127Z,10.63
2023-02-27T06:35:06.257Z,10.23
2023-02-27T06:37:35.557Z,10.60
2023-02-27T06:40:05.843Z,11.18
2023-02-27T06:42:34.016Z,14.52
2023-02-27T06:45:01.882Z,10.30
2023-02-27T06:47:29.825Z,10.85
2023-02-27T06:49:57.775Z,12.77
2023-02-27T06:52:25.739Z,13.52
2023-02-27T06:54:55.052Z,12.18
2023-02-27T06:57:23.003Z,13.38
2023-02-27T06:59:51.018Z,11.75
2023-02-27T07:02:19.735Z,12.20
2023-02-27T07:04:47.715Z,15.40
2023-02-27T07:07:34.108Z,14.15
2023-02-27T07:10:05.350Z,11.40
2023-02-27T07:12:33.292Z,10.38
2023-02-27T07:15:01.277Z,12.60
2023-02-27T07:17:30.227Z,10.88
2023-02-27T07:19:58.259Z,12.57
2023-02-27T07:22:26.455Z,12.95
2023-02-27T07:24:54.478Z,11.25
2023-02-27T07:27:24.097Z,11.15
2023-02-27T07:29:52.876Z,10.48
2023-02-27T07:32:21.134Z,10.60
2023-02-27T07:34:49.190Z,10.65
2023-02-27T07:37:17.244Z,14.00
2023-02-27T07:39:45.592Z,10.10
2023-02-27T07:42:13.559Z,10.07
2023-02-27T07:44:42.861Z,10.57
2023-02-27T15:02:38.135Z,5.95
2023-02-27T15:05:19.947Z,3.67
2023-02-27T15:07:48.997Z,2.72
2023-02-27T15:13:08.178Z,3.35
2023-02-27T15:15:36.252Z,3.40
2023-02-27T15:18:14.750Z,4.35
2023-02-27T15:20:42.707Z,4.75
2023-02-27T15:23:25.973Z,3.92
2023-02-27T15:25:57.570Z,2.60
2023-02-27T15:28:27.911Z,4.22
2023-02-27T15:30:57.361Z,5.78
2023-02-27T15:33:30.592Z,4.78
2023-02-27T15:35:59.172Z,5.28
2023-02-27T15:38:29.111Z,3.78
2023-02-27T15:40:59.512Z,5.43
2023-02-27T15:43:28.718Z,4.30
2023-02-27T15:45:58.233Z,3.78
2023-02-27T15:48:29.470Z,5.13
2023-02-27T15:51:00.568Z,6.18
2023-02-27T15:53:30.743Z,5.40
2023-02-27T15:56:00.845Z,4.20
2023-02-27T15:58:31.255Z,5.43
2023-02-27T16:01:02.214Z,4.35
2023-02-27T16:03:36.677Z,3.10
2023-02-27T16:06:11.423Z,3.75
2023-02-27T16:08:45.836Z,3.78
2023-02-27T16:11:19.842Z,4.50
2023-02-27T16:13:47.900Z,2.97
2023-02-27T16:16:31.954Z,3.78
2023-02-27T16:19:03.688Z,6.78
2023-02-27T16:21:32.262Z,6.07
2023-02-27T16:24:21.542Z,3.05
2023-02-27T16:26:53.007Z,3.33
2023-02-27T16:29:23.388Z,2.67
2023-02-27T16:31:54.489Z,5.85
2023-02-27T16:34:44.257Z,3.20
2023-02-27T16:37:21.033Z,3.97
2023-02-27T16:39:51.558Z,6.57
2023-02-27T16:42:19.632Z,8.35
2023-02-27T16:44:47.795Z,6.72
2023-02-27T16:47:15.742Z,6.18
2023-02-27T16:49:46.422Z,5.18
2023-02-27T16:52:14.602Z,8.45
2023-02-27T16:54:42.701Z,3.55
2023-02-27T16:57:11.397Z,8.75
2023-02-27T16:59:40.491Z,8.80
2023-02-27T17:02:13.665Z,5.25
2023-02-27T17:04:44.360Z,3.55
2023-02-27T17:07:16.665Z,4.20
2023-02-27T17:09:44.968Z,8.20
2023-02-27T17:12:13.257Z,2.53
2023-02-27T17:14:41.273Z,3.80
2023-02-27T17:17:10.971Z,4.68
2023-02-27T17:19:39.361Z,2.67
2023-02-27T17:22:07.347Z,4.45
2023-02-27T17:24:37.595Z,2.65
2023-02-27T17:27:05.726Z,6.38
2023-02-27T17:29:35.306Z,4.07
2023-02-27T17:32:03.359Z,8.20
2023-02-27T17:34:31.387Z,4.00
2023-02-27T17:36:59.548Z,5.00
2023-02-27T17:39:27.736Z,10.38
2023-02-27T17:41:57.095Z,4.65
2023-02-27T17:44:24.988Z,4.60
2023-02-27T17:46:52.997Z,13.95
2023-02-27T17:49:21.001Z,14.68
2023-02-27T17:51:48.983Z,11.27
2023-02-27T17:54:17.258Z,7.80
2023-02-27T17:56:45.222Z,5.65
2023-02-27T17:59:14.658Z,4.20
2023-02-27T18:01:42.681Z,4.82
2023-02-27T18:04:11.306Z,6.43
2023-02-27T18:06:39.410Z,6.78
2023-02-27T18:09:07.487Z,9.00
2023-02-27T18:11:37.396Z,6.25
2023-02-27T18:14:05.498Z,8.82
2023-02-27T18:16:35.117Z,7.97
2023-02-27T18:19:04.466Z,8.70
2023-02-27T18:21:33.108Z,6.63
2023-02-27T18:24:01.810Z,12.40
2023-02-27T18:26:32.855Z,10.95
2023-02-27T18:29:02.706Z,6.18
2023-02-27T18:31:33.411Z,10.27
2023-02-27T18:34:02.984Z,6.20
2023-02-27T18:36:31.853Z,4.63
2023-02-27T18:39:00.828Z,8.60
2023-02-27T18:41:29.428Z,6.25
2023-02-27T18:43:58.470Z,3.90
2023-02-27T18:46:27.411Z,5.30
2023-02-27T18:48:55.611Z,4.57
2023-02-27T18:51:25.116Z,8.35
2023-02-27T18:53:53.829Z,4.32
2023-02-27T18:56:24.039Z,4.30
2023-02-27T18:58:52.934Z,6.07
2023-02-27T19:01:23.345Z,6.65
2023-02-27T19:03:53.234Z,4.70
2023-02-27T19:06:21.379Z,3.83
2023-02-27T19:08:50.882Z,4.00
2023-02-27T19:11:23.434Z,7.15
2023-02-27T19:13:52.971Z,5.07
2023-02-27T19:16:21.159Z,5.88
2023-02-27T19:18:49.313Z,5.47
2023-02-27T19:21:17.303Z,5.18
2023-02-27T19:23:45.282Z,5.78
2023-02-27T19:26:15.282Z,5.22
2023-02-27T19:28:43.212Z,5.90
2023-02-27T19:31:13.047Z,5.03
2023-02-27T19:33:41.636Z,3.20
2023-02-27T19:36:11.990Z,5.93
2023-02-27T19:38:40.335Z,5.28
2023-02-27T19:41:10.751Z,2.63
2023-02-27T19:43:41.503Z,4.55
2023-02-27T19:46:12.254Z,4.10
2023-02-27T19:48:40.844Z,3.97
2023-02-27T19:51:11.655Z,4.50
2023-02-27T19:53:41.274Z,3.60
2023-02-27T19:56:12.244Z,4.35
2023-02-27T19:58:42.227Z,3.75
2023-02-27T20:01:10.927Z,6.15
2023-02-27T20:03:43.170Z,4.75
2023-02-27T20:06:19.361Z,4.20
2023-02-27T20:08:47.802Z,4.30
2023-02-27T20:11:17.441Z,6.95
2023-02-27T20:13:47.550Z,14.40
2023-02-27T20:16:17.585Z,5.10
2023-02-27T20:18:46.440Z,5.40
2023-02-27T20:21:19.970Z,7.25
2023-02-27T20:23:51.652Z,3.97
2023-02-27T20:26:25.203Z,6.07
2023-02-27T20:28:56.562Z,5.25
2023-02-27T20:31:28.251Z,4.75
2023-02-27T20:34:01.050Z,3.97
2023-02-27T20:36:30.728Z,4.05
2023-02-27T20:38:58.779Z,4.20
2023-02-27T20:41:29.645Z,3.65
2023-02-27T20:43:59.329Z,11.45
2023-02-27T20:46:29.952Z,4.72
2023-02-27T20:49:00.117Z,6.25
2023-02-27T20:51:36.183Z,6.43
2023-02-27T20:54:06.845Z,9.00
2023-02-27T20:56:37.859Z,6.18
2023-02-27T20:59:09.377Z,5.10
